Terminal Aerodrome Forecast
Issued by NWS

Home | Current Version | Previous Version | Text Only | Print | Product List | Glossary On
Versions: 1 2 3 4 5 6 7 8 9 10 11 12 13 14
125
FTUS43 KICT 271731
TAFCNU
TAF
KCNU 271731Z 2718/2818 21010KT P6SM SCT035 BKN080
     FM272100 01011KT P6SM VCTS SCT035CB BKN080
      TEMPO 2721/2724 5SM TSRA BR BKN035CB
     FM280000 01010KT P6SM BKN080
     FM280500 01007KT P6SM BKN100
     FM281500 03008KT P6SM SCT100=

USA.gov is the U.S. government's official web portal to all federal, state and local government web resources and services.